sensor_id;sensor_type;location;lat;lon;timestamp;P1;durP1;ratioP1;P2;durP2;ratioP2
17854;SDS011;9053;53.358;6.382;2023-04-10T00:00:31;29.90;;;20.60;;
17854;SDS011;9053;53.358;6.382;2023-04-10T00:03:03;29.07;;;21.03;;
17854;SDS011;9053;53.358;6.382;2023-04-10T00:05:34;32.07;;;21.57;;
17854;SDS011;9053;53.358;6.382;2023-04-10T00:08:04;29.67;;;20.70;;
17854;SDS011;9053;53.358;6.382;2023-04-10T00:10:33;30.53;;;20.80;;
17854;SDS011;9053;53.358;6.382;2023-04-10T00:13:06;31.07;;;22.07;;
17854;SDS011;9053;53.358;6.382;2023-04-10T00:15:36;29.10;;;21.00;;
17854;SDS011;9053;53.358;6.382;2023-04-10T00:18:06;31.40;;;22.07;;
17854;SDS011;9053;53.358;6.382;2023-04-10T00:20:36;28.20;;;20.63;;
17854;SDS011;9053;53.358;6.382;2023-04-10T00:23:07;28.87;;;20.90;;
17854;SDS011;9053;53.358;6.382;2023-04-10T00:25:37;29.17;;;21.37;;
17854;SDS011;9053;53.358;6.382;2023-04-10T00:28:09;30.07;;;20.87;;
17854;SDS011;9053;53.358;6.382;2023-04-10T00:30:39;30.53;;;21.30;;
17854;SDS011;9053;53.358;6.382;2023-04-10T00:33:09;33.47;;;22.30;;
17854;SDS011;9053;53.358;6.382;2023-04-10T00:35:42;30.10;;;21.13;;
17854;SDS011;9053;53.358;6.382;2023-04-10T00:38:11;33.67;;;22.03;;
17854;SDS011;9053;53.358;6.382;2023-04-10T00:40:42;32.50;;;22.43;;
17854;SDS011;9053;53.358;6.382;2023-04-10T00:43:14;30.97;;;22.47;;
17854;SDS011;9053;53.358;6.382;2023-04-10T00:45:47;32.07;;;21.63;;
17854;SDS011;9053;53.358;6.382;2023-04-10T00:48:17;30.63;;;21.80;;
17854;SDS011;9053;53.358;6.382;2023-04-10T00:50:47;34.60;;;23.30;;
17854;SDS011;9053;53.358;6.382;2023-04-10T00:53:17;31.47;;;22.57;;
17854;SDS011;9053;53.358;6.382;2023-04-10T00:55:47;33.50;;;23.40;;
17854;SDS011;9053;53.358;6.382;2023-04-10T00:58:21;32.87;;;23.40;;
17854;SDS011;9053;53.358;6.382;2023-04-10T01:00:52;33.80;;;22.77;;
17854;SDS011;9053;53.358;6.382;2023-04-10T01:03:22;33.03;;;22.73;;
17854;SDS011;9053;53.358;6.382;2023-04-10T01:05:56;34.93;;;23.43;;
17854;SDS011;9053;53.358;6.382;2023-04-10T01:08:35;36.37;;;24.23;;
17854;SDS011;9053;53.358;6.382;2023-04-10T01:11:17;37.67;;;25.17;;
17854;SDS011;9053;53.358;6.382;2023-04-10T01:13:57;35.40;;;23.77;;
17854;SDS011;9053;53.358;6.382;2023-04-10T01:16:35;38.30;;;24.87;;
17854;SDS011;9053;53.358;6.382;2023-04-10T01:19:15;35.93;;;25.17;;
17854;SDS011;9053;53.358;6.382;2023-04-10T01:21:54;36.00;;;24.90;;
17854;SDS011;9053;53.358;6.382;2023-04-10T01:24:29;36.50;;;24.30;;
17854;SDS011;9053;53.358;6.382;2023-04-10T01:27:11;35.20;;;25.60;;
17854;SDS011;9053;53.358;6.382;2023-04-10T01:30:00;38.43;;;25.90;;
17854;SDS011;9053;53.358;6.382;2023-04-10T01:32:31;38.10;;;25.03;;
17854;SDS011;9053;53.358;6.382;2023-04-10T01:35:05;37.53;;;26.13;;
17854;SDS011;9053;53.358;6.382;2023-04-10T01:37:37;40.90;;;27.23;;
17854;SDS011;9053;53.358;6.382;2023-04-10T01:40:14;38.97;;;26.83;;
17854;SDS011;9053;53.358;6.382;2023-04-10T01:42:47;36.57;;;25.93;;
17854;SDS011;9053;53.358;6.382;2023-04-10T01:45:24;41.70;;;27.47;;
17854;SDS011;9053;53.358;6.382;2023-04-10T01:47:57;37.00;;;26.60;;
17854;SDS011;9053;53.358;6.382;2023-04-10T01:50:27;39.87;;;27.67;;
17854;SDS011;9053;53.358;6.382;2023-04-10T01:52:58;38.77;;;27.53;;
17854;SDS011;9053;53.358;6.382;2023-04-10T01:55:30;38.40;;;26.70;;
17854;SDS011;9053;53.358;6.382;2023-04-10T01:58:02;40.33;;;27.43;;
17854;SDS011;9053;53.358;6.382;2023-04-10T02:00:39;39.47;;;27.13;;
17854;SDS011;9053;53.358;6.382;2023-04-10T02:03:09;39.17;;;27.63;;
17854;SDS011;9053;53.358;6.382;2023-04-10T02:05:43;40.73;;;27.77;;
17854;SDS011;9053;53.358;6.382;2023-04-10T02:08:30;39.33;;;27.20;;
17854;SDS011;9053;53.358;6.382;2023-04-10T02:11:11;43.50;;;29.33;;
17854;SDS011;9053;53.358;6.382;2023-04-10T02:13:46;39.67;;;28.50;;
17854;SDS011;9053;53.358;6.382;2023-04-10T02:16:21;44.77;;;29.53;;
17854;SDS011;9053;53.358;6.382;2023-04-10T02:18:53;40.77;;;28.60;;
17854;SDS011;9053;53.358;6.382;2023-04-10T02:21:24;42.73;;;29.50;;
17854;SDS011;9053;53.358;6.382;2023-04-10T02:23:56;43.27;;;30.80;;
17854;SDS011;9053;53.358;6.382;2023-04-10T02:26:26;38.90;;;29.77;;
17854;SDS011;9053;53.358;6.382;2023-04-10T02:28:56;43.13;;;30.37;;
17854;SDS011;9053;53.358;6.382;2023-04-10T02:31:29;42.73;;;30.37;;
17854;SDS011;9053;53.358;6.382;2023-04-10T02:34:02;48.30;;;33.23;;
17854;SDS011;9053;53.358;6.382;2023-04-10T02:36:32;43.37;;;31.17;;
17854;SDS011;9053;53.358;6.382;2023-04-10T02:39:08;47.50;;;34.67;;
17854;SDS011;9053;53.358;6.382;2023-04-10T02:41:38;45.53;;;32.03;;
17854;SDS011;9053;53.358;6.382;2023-04-10T02:44:07;52.60;;;34.90;;
17854;SDS011;9053;53.358;6.382;2023-04-10T02:46:40;49.93;;;34.13;;
17854;SDS011;9053;53.358;6.382;2023-04-10T02:49:10;46.73;;;33.10;;
17854;SDS011;9053;53.358;6.382;2023-04-10T02:51:40;48.23;;;33.23;;
17854;SDS011;9053;53.358;6.382;2023-04-10T02:54:10;45.80;;;32.70;;
17854;SDS011;9053;53.358;6.382;2023-04-10T02:56:40;46.33;;;32.90;;
17854;SDS011;9053;53.358;6.382;2023-04-10T02:59:11;48.27;;;34.20;;
17854;SDS011;9053;53.358;6.382;2023-04-10T03:01:44;47.30;;;32.47;;
17854;SDS011;9053;53.358;6.382;2023-04-10T03:04:15;50.93;;;32.70;;
17854;SDS011;9053;53.358;6.382;2023-04-10T03:06:45;48.77;;;32.93;;
17854;SDS011;9053;53.358;6.382;2023-04-10T03:09:15;52.00;;;35.80;;
17854;SDS011;9053;53.358;6.382;2023-04-10T03:11:45;52.13;;;34.63;;
17854;SDS011;9053;53.358;6.382;2023-04-10T03:14:14;45.07;;;33.20;;
17854;SDS011;9053;53.358;6.382;2023-04-10T03:16:47;49.63;;;33.23;;
17854;SDS011;9053;53.358;6.382;2023-04-10T03:19:17;47.20;;;33.23;;
17854;SDS011;9053;53.358;6.382;2023-04-10T03:21:47;45.40;;;32.43;;
17854;SDS011;9053;53.358;6.382;2023-04-10T03:24:17;50.13;;;33.23;;
17854;SDS011;9053;53.358;6.382;2023-04-10T03:26:49;48.33;;;32.60;;
17854;SDS011;9053;53.358;6.382;2023-04-10T03:29:19;46.63;;;33.13;;
17854;SDS011;9053;53.358;6.382;2023-04-10T03:31:51;48.13;;;32.10;;
17854;SDS011;9053;53.358;6.382;2023-04-10T03:34:23;45.37;;;31.33;;
17854;SDS011;9053;53.358;6.382;2023-04-10T03:36:53;49.23;;;32.40;;
17854;SDS011;9053;53.358;6.382;2023-04-10T03:39:26;47.27;;;32.63;;
17854;SDS011;9053;53.358;6.382;2023-04-10T03:41:57;46.00;;;30.90;;
17854;SDS011;9053;53.358;6.382;2023-04-10T03:44:27;44.67;;;31.53;;
17854;SDS011;9053;53.358;6.382;2023-04-10T03:46:59;44.73;;;31.43;;
17854;SDS011;9053;53.358;6.382;2023-04-10T03:49:29;45.57;;;31.43;;
17854;SDS011;9053;53.358;6.382;2023-04-10T03:52:00;46.07;;;31.63;;
17854;SDS011;9053;53.358;6.382;2023-04-10T03:54:30;45.23;;;32.07;;
17854;SDS011;9053;53.358;6.382;2023-04-10T03:57:03;49.17;;;31.80;;
17854;SDS011;9053;53.358;6.382;2023-04-10T03:59:33;43.97;;;30.20;;
17854;SDS011;9053;53.358;6.382;2023-04-10T04:02:07;45.17;;;32.07;;
17854;SDS011;9053;53.358;6.382;2023-04-10T04:04:37;43.07;;;30.03;;
17854;SDS011;9053;53.358;6.382;2023-04-10T04:07:08;47.40;;;30.67;;
17854;SDS011;9053;53.358;6.382;2023-04-10T04:09:39;45.37;;;31.87;;
17854;SDS011;9053;53.358;6.382;2023-04-10T04:12:09;47.57;;;30.87;;
17854;SDS011;9053;53.358;6.382;2023-04-10T04:14:39;44.67;;;31.23;;
17854;SDS011;9053;53.358;6.382;2023-04-10T04:17:12;45.50;;;31.63;;
17854;SDS011;9053;53.358;6.382;2023-04-10T04:19:42;46.33;;;32.13;;
17854;SDS011;9053;53.358;6.382;2023-04-10T04:22:14;51.70;;;36.43;;
17854;SDS011;9053;53.358;6.382;2023-04-10T04:24:43;48.23;;;32.53;;
17854;SDS011;9053;53.358;6.382;2023-04-10T04:27:13;44.27;;;32.97;;
17854;SDS011;9053;53.358;6.382;2023-04-10T04:29:43;45.73;;;30.67;;
17854;SDS011;9053;53.358;6.382;2023-04-10T04:32:16;48.67;;;32.57;;
17854;SDS011;9053;53.358;6.382;2023-04-10T04:34:46;45.13;;;31.27;;
17854;SDS011;9053;53.358;6.382;2023-04-10T04:37:16;53.57;;;35.17;;
17854;SDS011;9053;53.358;6.382;2023-04-10T04:39:46;50.57;;;34.73;;
17854;SDS011;9053;53.358;6.382;2023-04-10T04:42:16;48.70;;;33.53;;
17854;SDS011;9053;53.358;6.382;2023-04-10T04:44:46;50.93;;;34.57;;
17854;SDS011;9053;53.358;6.382;2023-04-10T04:47:20;48.23;;;33.87;;
17854;SDS011;9053;53.358;6.382;2023-04-10T04:49:50;53.10;;;35.00;;
17854;SDS011;9053;53.358;6.382;2023-04-10T04:52:20;51.43;;;36.20;;
17854;SDS011;9053;53.358;6.382;2023-04-10T04:54:51;47.03;;;33.77;;
17854;SDS011;9053;53.358;6.382;2023-04-10T04:57:21;48.77;;;33.27;;
17854;SDS011;9053;53.358;6.382;2023-04-10T04:59:51;47.37;;;32.93;;
17854;SDS011;9053;53.358;6.382;2023-04-10T05:02:24;48.63;;;33.80;;
17854;SDS011;9053;53.358;6.382;2023-04-10T05:04:54;53.07;;;35.27;;
17854;SDS011;9053;53.358;6.382;2023-04-10T05:07:24;48.17;;;32.10;;
17854;SDS011;9053;53.358;6.382;2023-04-10T05:09:54;47.63;;;33.50;;
17854;SDS011;9053;53.358;6.382;2023-04-10T05:12:24;45.57;;;33.07;;
17854;SDS011;9053;53.358;6.382;2023-04-10T05:14:54;52.73;;;35.87;;
17854;SDS011;9053;53.358;6.382;2023-04-10T05:17:28;47.97;;;32.57;;
17854;SDS011;9053;53.358;6.382;2023-04-10T05:19:58;49.07;;;34.67;;
17854;SDS011;9053;53.358;6.382;2023-04-10T05:22:28;49.60;;;34.73;;
17854;SDS011;9053;53.358;6.382;2023-04-10T05:24:59;48.67;;;33.90;;
17854;SDS011;9053;53.358;6.382;2023-04-10T05:27:29;47.50;;;34.07;;
17854;SDS011;9053;53.358;6.382;2023-04-10T05:29:59;55.07;;;37.20;;
17854;SDS011;9053;53.358;6.382;2023-04-10T05:32:32;49.63;;;35.10;;
17854;SDS011;9053;53.358;6.382;2023-04-10T05:35:02;50.40;;;35.30;;
17854;SDS011;9053;53.358;6.382;2023-04-10T05:37:34;50.07;;;34.87;;
17854;SDS011;9053;53.358;6.382;2023-04-10T05:40:06;54.13;;;36.10;;
17854;SDS011;9053;53.358;6.382;2023-04-10T05:42:37;50.20;;;36.20;;
17854;SDS011;9053;53.358;6.382;2023-04-10T05:45:07;53.73;;;38.10;;
17854;SDS011;9053;53.358;6.382;2023-04-10T05:47:43;50.40;;;35.70;;
17854;SDS011;9053;53.358;6.382;2023-04-10T05:50:13;55.67;;;37.37;;
17854;SDS011;9053;53.358;6.382;2023-04-10T05:52:50;52.27;;;35.60;;
17854;SDS011;9053;53.358;6.382;2023-04-10T05:55:20;49.03;;;34.47;;
17854;SDS011;9053;53.358;6.382;2023-04-10T05:57:53;50.23;;;34.80;;
17854;SDS011;9053;53.358;6.382;2023-04-10T06:00:26;53.23;;;36.80;;
17854;SDS011;9053;53.358;6.382;2023-04-10T06:03:00;51.03;;;34.83;;
17854;SDS011;9053;53.358;6.382;2023-04-10T06:05:31;52.40;;;34.37;;
17854;SDS011;9053;53.358;6.382;2023-04-10T06:08:01;50.93;;;35.20;;
17854;SDS011;9053;53.358;6.382;2023-04-10T06:10:32;50.20;;;35.40;;
17854;SDS011;9053;53.358;6.382;2023-04-10T06:13:02;49.53;;;33.60;;
17854;SDS011;9053;53.358;6.382;2023-04-10T06:15:36;47.87;;;33.93;;
17854;SDS011;9053;53.358;6.382;2023-04-10T06:18:09;50.53;;;34.53;;
17854;SDS011;9053;53.358;6.382;2023-04-10T06:20:39;51.23;;;35.57;;
17854;SDS011;9053;53.358;6.382;2023-04-10T06:23:09;45.00;;;33.10;;
17854;SDS011;9053;53.358;6.382;2023-04-10T06:25:39;46.40;;;33.67;;
17854;SDS011;9053;53.358;6.382;2023-04-10T06:28:09;43.33;;;31.30;;
17854;SDS011;9053;53.358;6.382;2023-04-10T06:30:39;45.43;;;32.63;;
17854;SDS011;9053;53.358;6.382;2023-04-10T06:33:18;44.00;;;30.17;;
17854;SDS011;9053;53.358;6.382;2023-04-10T06:35:51;42.27;;;30.70;;
17854;SDS011;9053;53.358;6.382;2023-04-10T06:38:21;40.53;;;28.87;;
17854;SDS011;9053;53.358;6.382;2023-04-10T06:40:51;40.17;;;29.63;;
17854;SDS011;9053;53.358;6.382;2023-04-10T06:43:21;43.40;;;31.00;;
17854;SDS011;9053;53.358;6.382;2023-04-10T06:45:54;41.07;;;28.53;;
17854;SDS011;9053;53.358;6.382;2023-04-10T06:48:27;42.30;;;29.67;;
17854;SDS011;9053;53.358;6.382;2023-04-10T06:50:58;40.10;;;29.00;;
17854;SDS011;9053;53.358;6.382;2023-04-10T06:53:29;40.53;;;28.77;;
17854;SDS011;9053;53.358;6.382;2023-04-10T06:55:59;41.13;;;29.13;;
17854;SDS011;9053;53.358;6.382;2023-04-10T06:58:29;40.47;;;29.40;;
17854;SDS011;9053;53.358;6.382;2023-04-10T07:00:59;36.77;;;27.33;;
17854;SDS011;9053;53.358;6.382;2023-04-10T07:03:33;36.00;;;26.63;;
17854;SDS011;9053;53.358;6.382;2023-04-10T07:06:03;40.40;;;28.33;;
17854;SDS011;9053;53.358;6.382;2023-04-10T07:08:34;34.80;;;26.33;;
17854;SDS011;9053;53.358;6.382;2023-04-10T07:11:05;36.43;;;25.57;;
17854;SDS011;9053;53.358;6.382;2023-04-10T07:13:35;35.50;;;27.10;;
17854;SDS011;9053;53.358;6.382;2023-04-10T07:16:06;34.03;;;25.30;;
17854;SDS011;9053;53.358;6.382;2023-04-10T07:18:40;36.57;;;26.40;;
17854;SDS011;9053;53.358;6.382;2023-04-10T07:21:12;33.90;;;24.93;;
17854;SDS011;9053;53.358;6.382;2023-04-10T07:23:42;33.63;;;25.33;;
17854;SDS011;9053;53.358;6.382;2023-04-10T07:26:13;36.07;;;25.23;;
17854;SDS011;9053;53.358;6.382;2023-04-10T07:28:43;34.47;;;25.30;;
17854;SDS011;9053;53.358;6.382;2023-04-10T07:31:13;30.00;;;23.77;;
17854;SDS011;9053;53.358;6.382;2023-04-10T07:33:46;33.00;;;24.73;;
17854;SDS011;9053;53.358;6.382;2023-04-10T07:36:16;34.47;;;25.10;;
17854;SDS011;9053;53.358;6.382;2023-04-10T07:38:49;32.97;;;24.90;;
17854;SDS011;9053;53.358;6.382;2023-04-10T07:41:21;31.93;;;23.33;;
17854;SDS011;9053;53.358;6.382;2023-04-10T07:43:51;36.00;;;26.10;;
17854;SDS011;9053;53.358;6.382;2023-04-10T07:46:21;33.93;;;25.07;;
17854;SDS011;9053;53.358;6.382;2023-04-10T07:48:54;34.00;;;25.05;;
17854;SDS011;9053;53.358;6.382;2023-04-10T07:51:25;34.53;;;25.17;;
17854;SDS011;9053;53.358;6.382;2023-04-10T07:53:58;31.83;;;24.50;;
17854;SDS011;9053;53.358;6.382;2023-04-10T07:56:27;34.03;;;24.65;;
17854;SDS011;9053;53.358;6.382;2023-04-10T07:58:58;27.88;;;21.75;;
17854;SDS011;9053;53.358;6.382;2023-04-10T08:01:30;34.13;;;26.55;;
17854;SDS011;9053;53.358;6.382;2023-04-10T08:04:03;31.73;;;24.00;;
17854;SDS011;9053;53.358;6.382;2023-04-10T08:06:33;29.52;;;23.13;;
17854;SDS011;9053;53.358;6.382;2023-04-10T08:09:12;31.17;;;23.65;;
17854;SDS011;9053;53.358;6.382;2023-04-10T08:11:43;29.92;;;23.17;;
17854;SDS011;9053;53.358;6.382;2023-04-10T08:14:13;35.38;;;25.85;;
17854;SDS011;9053;53.358;6.382;2023-04-10T08:16:44;30.07;;;23.10;;
17854;SDS011;9053;53.358;6.382;2023-04-10T08:19:16;28.88;;;22.58;;
17854;SDS011;9053;53.358;6.382;2023-04-10T08:21:47;27.15;;;22.73;;
17854;SDS011;9053;53.358;6.382;2023-04-10T08:24:17;27.80;;;22.45;;
17854;SDS011;9053;53.358;6.382;2023-04-10T08:26:48;29.63;;;23.00;;
17854;SDS011;9053;53.358;6.382;2023-04-10T08:29:18;29.73;;;23.77;;
17854;SDS011;9053;53.358;6.382;2023-04-10T08:31:49;29.80;;;22.15;;
17854;SDS011;9053;53.358;6.382;2023-04-10T08:34:22;28.35;;;22.52;;
17854;SDS011;9053;53.358;6.382;2023-04-10T08:36:52;27.73;;;22.15;;
17854;SDS011;9053;53.358;6.382;2023-04-10T08:39:22;26.92;;;21.67;;
17854;SDS011;9053;53.358;6.382;2023-04-10T08:41:52;30.75;;;23.60;;
17854;SDS011;9053;53.358;6.382;2023-04-10T08:44:22;26.08;;;20.92;;
17854;SDS011;9053;53.358;6.382;2023-04-10T08:46:52;29.83;;;22.48;;
17854;SDS011;9053;53.358;6.382;2023-04-10T08:49:30;27.90;;;21.98;;
17854;SDS011;9053;53.358;6.382;2023-04-10T08:52:12;26.95;;;21.38;;
17854;SDS011;9053;53.358;6.382;2023-04-10T08:54:49;27.55;;;20.50;;
17854;SDS011;9053;53.358;6.382;2023-04-10T08:57:24;25.33;;;20.05;;
17854;SDS011;9053;53.358;6.382;2023-04-10T08:59:54;28.23;;;20.88;;
17854;SDS011;9053;53.358;6.382;2023-04-10T09:02:41;24.48;;;20.20;;
17854;SDS011;9053;53.358;6.382;2023-04-10T09:05:14;26.17;;;19.27;;
17854;SDS011;9053;53.358;6.382;2023-04-10T09:07:44;26.27;;;20.40;;
17854;SDS011;9053;53.358;6.382;2023-04-10T09:10:14;24.10;;;19.23;;
17854;SDS011;9053;53.358;6.382;2023-04-10T09:12:44;25.17;;;19.73;;
17854;SDS011;9053;53.358;6.382;2023-04-10T09:15:15;26.20;;;20.70;;
17854;SDS011;9053;53.358;6.382;2023-04-10T09:17:55;23.45;;;18.65;;
17854;SDS011;9053;53.358;6.382;2023-04-10T09:20:30;28.00;;;20.67;;
17854;SDS011;9053;53.358;6.382;2023-04-10T09:23:00;23.52;;;18.55;;
17854;SDS011;9053;53.358;6.382;2023-04-10T09:25:31;25.20;;;18.80;;
17854;SDS011;9053;53.358;6.382;2023-04-10T09:28:05;24.23;;;19.05;;
17854;SDS011;9053;53.358;6.382;2023-04-10T09:30:37;23.80;;;18.63;;
17854;SDS011;9053;53.358;6.382;2023-04-10T09:33:21;22.52;;;17.67;;
17854;SDS011;9053;53.358;6.382;2023-04-10T09:35:56;20.00;;;16.25;;
17854;SDS011;9053;53.358;6.382;2023-04-10T09:38:31;20.75;;;16.23;;
17854;SDS011;9053;53.358;6.382;2023-04-10T09:41:05;24.10;;;18.00;;
17854;SDS011;9053;53.358;6.382;2023-04-10T09:43:36;20.95;;;16.67;;
17854;SDS011;9053;53.358;6.382;2023-04-10T09:46:08;22.92;;;17.30;;
17854;SDS011;9053;53.358;6.382;2023-04-10T09:48:40;21.45;;;16.35;;
17854;SDS011;9053;53.358;6.382;2023-04-10T09:51:30;19.05;;;15.27;;
17854;SDS011;9053;53.358;6.382;2023-04-10T09:54:02;18.42;;;14.93;;
17854;SDS011;9053;53.358;6.382;2023-04-10T09:56:32;18.92;;;14.93;;
17854;SDS011;9053;53.358;6.382;2023-04-10T09:59:07;20.02;;;15.88;;
17854;SDS011;9053;53.358;6.382;2023-04-10T10:01:37;18.25;;;14.98;;
17854;SDS011;9053;53.358;6.382;2023-04-10T10:04:08;17.80;;;14.30;;
17854;SDS011;9053;53.358;6.382;2023-04-10T10:06:44;17.90;;;14.88;;
17854;SDS011;9053;53.358;6.382;2023-04-10T10:09:14;19.90;;;14.82;;
17854;SDS011;9053;53.358;6.382;2023-04-10T10:11:44;18.33;;;14.90;;
17854;SDS011;9053;53.358;6.382;2023-04-10T10:14:17;18.58;;;14.45;;
17854;SDS011;9053;53.358;6.382;2023-04-10T10:16:51;16.90;;;13.63;;
17854;SDS011;9053;53.358;6.382;2023-04-10T10:19:28;15.80;;;12.73;;
17854;SDS011;9053;53.358;6.382;2023-04-10T10:22:04;17.27;;;13.52;;
17854;SDS011;9053;53.358;6.382;2023-04-10T10:24:35;17.45;;;13.02;;
17854;SDS011;9053;53.358;6.382;2023-04-10T10:27:09;16.55;;;13.20;;
17854;SDS011;9053;53.358;6.382;2023-04-10T10:29:40;17.80;;;14.15;;
17854;SDS011;9053;53.358;6.382;2023-04-10T10:32:12;16.88;;;12.18;;
17854;SDS011;9053;53.358;6.382;2023-04-10T10:34:44;14.45;;;12.57;;
17854;SDS011;9053;53.358;6.382;2023-04-10T10:37:18;15.00;;;12.15;;
17854;SDS011;9053;53.358;6.382;2023-04-10T10:39:52;14.05;;;11.82;;
17854;SDS011;9053;53.358;6.382;2023-04-10T10:42:29;14.52;;;12.05;;
17854;SDS011;9053;53.358;6.382;2023-04-10T10:45:07;14.02;;;11.73;;
17854;SDS011;9053;53.358;6.382;2023-04-10T10:47:41;13.43;;;11.27;;
17854;SDS011;9053;53.358;6.382;2023-04-10T10:50:38;16.17;;;12.45;;
17854;SDS011;9053;53.358;6.382;2023-04-10T10:53:35;13.60;;;11.02;;
17854;SDS011;9053;53.358;6.382;2023-04-10T10:59:03;13.88;;;11.45;;
17854;SDS011;9053;53.358;6.382;2023-04-10T11:01:33;13.00;;;10.20;;
17854;SDS011;9053;53.358;6.382;2023-04-10T11:07:05;12.30;;;9.68;;
17854;SDS011;9053;53.358;6.382;2023-04-10T11:09:48;11.05;;;8.88;;
17854;SDS011;9053;53.358;6.382;2023-04-10T11:12:20;12.13;;;8.60;;
17854;SDS011;9053;53.358;6.382;2023-04-10T11:14:57;12.43;;;9.95;;
17854;SDS011;9053;53.358;6.382;2023-04-10T11:20:17;11.23;;;8.93;;
17854;SDS011;9053;53.358;6.382;2023-04-10T11:23:08;11.30;;;9.27;;
17854;SDS011;9053;53.358;6.382;2023-04-10T11:25:48;10.73;;;8.32;;
17854;SDS011;9053;53.358;6.382;2023-04-10T11:28:32;9.43;;;8.40;;
17854;SDS011;9053;53.358;6.382;2023-04-10T11:31:15;8.52;;;7.63;;
17854;SDS011;9053;53.358;6.382;2023-04-10T11:33:48;9.82;;;8.02;;
17854;SDS011;9053;53.358;6.382;2023-04-10T11:36:25;10.48;;;9.07;;
17854;SDS011;9053;53.358;6.382;2023-04-10T11:39:00;9.30;;;7.85;;
17854;SDS011;9053;53.358;6.382;2023-04-10T11:41:37;10.27;;;8.20;;
17854;SDS011;9053;53.358;6.382;2023-04-10T11:44:09;9.52;;;7.68;;
17854;SDS011;9053;53.358;6.382;2023-04-10T11:46:42;10.15;;;8.32;;
17854;SDS011;9053;53.358;6.382;2023-04-10T11:49:16;11.45;;;8.35;;
17854;SDS011;9053;53.358;6.382;2023-04-10T11:51:48;9.75;;;8.43;;
17854;SDS011;9053;53.358;6.382;2023-04-10T11:54:19;8.70;;;7.82;;
17854;SDS011;9053;53.358;6.382;2023-04-10T11:56:58;8.93;;;7.55;;
17854;SDS011;9053;53.358;6.382;2023-04-10T11:59:29;9.45;;;7.78;;
17854;SDS011;9053;53.358;6.382;2023-04-10T12:02:04;8.07;;;7.05;;
17854;SDS011;9053;53.358;6.382;2023-04-10T12:04:35;11.35;;;7.70;;
17854;SDS011;9053;53.358;6.382;2023-04-10T12:07:06;8.23;;;7.10;;
17854;SDS011;9053;53.358;6.382;2023-04-10T12:09:36;7.60;;;6.80;;
17854;SDS011;9053;53.358;6.382;2023-04-10T12:12:09;8.80;;;7.40;;
17854;SDS011;9053;53.358;6.382;2023-04-10T12:14:41;7.93;;;6.78;;
17854;SDS011;9053;53.358;6.382;2023-04-10T12:17:12;7.70;;;6.60;;
17854;SDS011;9053;53.358;6.382;2023-04-10T12:19:42;7.85;;;6.68;;
17854;SDS011;9053;53.358;6.382;2023-04-10T12:22:12;8.13;;;6.35;;
17854;SDS011;9053;53.358;6.382;2023-04-10T12:24:43;7.93;;;6.00;;
17854;SDS011;9053;53.358;6.382;2023-04-10T12:27:17;6.30;;;5.70;;
17854;SDS011;9053;53.358;6.382;2023-04-10T12:29:49;7.63;;;6.18;;
17854;SDS011;9053;53.358;6.382;2023-04-10T12:32:20;7.90;;;6.28;;
17854;SDS011;9053;53.358;6.382;2023-04-10T12:34:50;8.07;;;6.50;;
17854;SDS011;9053;53.358;6.382;2023-04-10T12:37:23;6.70;;;5.57;;
17854;SDS011;9053;53.358;6.382;2023-04-10T12:40:03;6.85;;;5.88;;
17854;SDS011;9053;53.358;6.382;2023-04-10T12:42:41;6.75;;;5.50;;
17854;SDS011;9053;53.358;6.382;2023-04-10T12:45:15;6.97;;;5.70;;
17854;SDS011;9053;53.358;6.382;2023-04-10T12:47:45;7.05;;;5.70;;
17854;SDS011;9053;53.358;6.382;2023-04-10T12:50:17;5.30;;;4.80;;
17854;SDS011;9053;53.358;6.382;2023-04-10T12:53:00;5.78;;;5.07;;
17854;SDS011;9053;53.358;6.382;2023-04-10T12:55:33;5.57;;;4.95;;
17854;SDS011;9053;53.358;6.382;2023-04-10T12:58:16;7.00;;;5.53;;
17854;SDS011;9053;53.358;6.382;2023-04-10T13:00:48;6.80;;;5.30;;
17854;SDS011;9053;53.358;6.382;2023-04-10T13:03:18;7.68;;;5.65;;
17854;SDS011;9053;53.358;6.382;2023-04-10T13:05:48;5.57;;;4.97;;
17854;SDS011;9053;53.358;6.382;2023-04-10T13:08:19;6.70;;;5.53;;
17854;SDS011;9053;53.358;6.382;2023-04-10T13:10:49;6.60;;;5.88;;
17854;SDS011;9053;53.358;6.382;2023-04-10T13:13:23;7.10;;;6.40;;
17854;SDS011;9053;53.358;6.382;2023-04-10T13:15:53;6.85;;;5.75;;
17854;SDS011;9053;53.358;6.382;2023-04-10T13:18:23;6.07;;;5.47;;
17854;SDS011;9053;53.358;6.382;2023-04-10T13:20:53;6.32;;;5.72;;
17854;SDS011;9053;53.358;6.382;2023-04-10T13:23:23;5.70;;;5.07;;
17854;SDS011;9053;53.358;6.382;2023-04-10T13:25:53;7.38;;;5.72;;
17854;SDS011;9053;53.358;6.382;2023-04-10T13:28:31;6.95;;;5.63;;
17854;SDS011;9053;53.358;6.382;2023-04-10T13:31:02;6.47;;;5.57;;
17854;SDS011;9053;53.358;6.382;2023-04-10T13:33:32;7.03;;;6.03;;
17854;SDS011;9053;53.358;6.382;2023-04-10T13:36:02;7.50;;;6.13;;
17854;SDS011;9053;53.358;6.382;2023-04-10T13:38:32;7.43;;;5.90;;
17854;SDS011;9053;53.358;6.382;2023-04-10T13:41:02;9.23;;;6.55;;
17854;SDS011;9053;53.358;6.382;2023-04-10T13:43:35;10.82;;;9.93;;
17854;SDS011;9053;53.358;6.382;2023-04-10T13:46:05;8.20;;;6.60;;
17854;SDS011;9053;53.358;6.382;2023-04-10T13:48:35;7.72;;;6.35;;
17854;SDS011;9053;53.358;6.382;2023-04-10T13:51:07;6.32;;;5.40;;
17854;SDS011;9053;53.358;6.382;2023-04-10T13:53:39;7.28;;;5.80;;
17854;SDS011;9053;53.358;6.382;2023-04-10T13:56:09;6.40;;;5.72;;
17854;SDS011;9053;53.358;6.382;2023-04-10T13:58:44;8.52;;;6.50;;
17854;SDS011;9053;53.358;6.382;2023-04-10T14:01:14;7.03;;;6.32;;
17854;SDS011;9053;53.358;6.382;2023-04-10T14:03:45;9.10;;;6.80;;
17854;SDS011;9053;53.358;6.382;2023-04-10T14:06:15;6.95;;;5.80;;
17854;SDS011;9053;53.358;6.382;2023-04-10T14:08:45;8.02;;;5.53;;
17854;SDS011;9053;53.358;6.382;2023-04-10T14:11:15;7.18;;;6.32;;
17854;SDS011;9053;53.358;6.382;2023-04-10T14:13:48;6.78;;;5.85;;
17854;SDS011;9053;53.358;6.382;2023-04-10T14:16:18;7.95;;;6.03;;
17854;SDS011;9053;53.358;6.382;2023-04-10T14:18:48;7.10;;;6.40;;
17854;SDS011;9053;53.358;6.382;2023-04-10T14:21:18;7.57;;;5.95;;
17854;SDS011;9053;53.358;6.382;2023-04-10T14:23:48;7.18;;;6.47;;
17854;SDS011;9053;53.358;6.382;2023-04-10T14:26:18;8.02;;;6.22;;
17854;SDS011;9053;53.358;6.382;2023-04-10T14:28:55;6.22;;;5.63;;
17854;SDS011;9053;53.358;6.382;2023-04-10T14:31:25;9.35;;;6.15;;
17854;SDS011;9053;53.358;6.382;2023-04-10T14:33:55;7.45;;;6.10;;
17854;SDS011;9053;53.358;6.382;2023-04-10T14:36:25;6.28;;;5.65;;
17854;SDS011;9053;53.358;6.382;2023-04-10T14:39:03;6.95;;;6.15;;
17854;SDS011;9053;53.358;6.382;2023-04-10T14:41:33;8.23;;;6.35;;
17854;SDS011;9053;53.358;6.382;2023-04-10T14:44:05;7.28;;;5.80;;
17854;SDS011;9053;53.358;6.382;2023-04-10T14:46:35;7.00;;;6.30;;
17854;SDS011;9053;53.358;6.382;2023-04-10T14:49:05;7.63;;;6.30;;
17854;SDS011;9053;53.358;6.382;2023-04-10T14:51:37;8.23;;;5.95;;
17854;SDS011;9053;53.358;6.382;2023-04-10T14:54:07;7.07;;;6.38;;
17854;SDS011;9053;53.358;6.382;2023-04-10T14:56:37;7.82;;;7.03;;
17854;SDS011;9053;53.358;6.382;2023-04-10T14:59:09;7.47;;;6.68;;
17854;SDS011;9053;53.358;6.382;2023-04-10T15:01:40;7.88;;;6.35;;
17854;SDS011;9053;53.358;6.382;2023-04-10T15:04:10;8.18;;;7.03;;
17854;SDS011;9053;53.358;6.382;2023-04-10T15:06:40;8.18;;;7.18;;
17854;SDS011;9053;53.358;6.382;2023-04-10T15:09:10;11.98;;;7.43;;
17854;SDS011;9053;53.358;6.382;2023-04-10T15:11:40;7.57;;;6.00;;
17854;SDS011;9053;53.358;6.382;2023-04-10T15:14:12;7.00;;;6.30;;
17854;SDS011;9053;53.358;6.382;2023-04-10T15:16:42;7.50;;;6.70;;
17854;SDS011;9053;53.358;6.382;2023-04-10T15:19:12;8.55;;;6.47;;